»·PEaware :: FFT2122 KLAS-KSNA

FFT2122 :: KLAS-KSNA

FLIGHT INFORMATION

Flight Status: Arrived
Operator:
Frontier Airlines
More flights by this operator :: More flights under this callsign
Pilot: Hayden Y. (1870)
Aircraft: AIRBUS A320
(A320)
More flights by this aircraft type
Origin: KLAS McCarran Intl
United States
Destination: KSNA John Wayne-Orange Co
United States
More flights between these airports :: More routes between these airports
Route: BOACH8 WHIGG FEYLA DSNEE4
File this flight plan on PilotEdge
Remarks:
Altitude:
(Current/Filed)
32,000ft
Speed:
(Current/Filed)
428kts
Departed: 12-May-20 06:02 PM
Arrived: 12-May-20 06:44 PM
Distance/Time
Traveled:
196nm/0:42
Distance/Time
To Go:
Arrived

Flight Plot

Page will automatically refresh every two minutes.


Map Options




Map Legend


Flown Route
Filed Route
Departure Airport
Arrival Airport
Navaid (VOR, NDB)
Fix

Horizontal Profiles

Position Reports

Time Latitude Longitude Heading Altitude Ground
Speed
12-May-20 17:06 36.086281 -115.153628 102 2129ft 0kts
12-May-20 17:07 36.086281 -115.153628 102 2129ft 0kts
12-May-20 17:08 36.086281 -115.153628 102 2129ft 0kts
12-May-20 17:09 36.086281 -115.153628 102 2129ft 0kts
12-May-20 17:10 36.086281 -115.153628 102 2129ft 0kts
12-May-20 17:11 36.086281 -115.153628 102 2129ft 0kts
12-May-20 17:12 36.086281 -115.153628 102 2129ft 0kts
12-May-20 17:13 36.086281 -115.153628 102 2129ft 0kts
12-May-20 17:14 36.086281 -115.153628 102 2129ft 0kts
12-May-20 17:15 36.086281 -115.153628 102 2129ft 0kts
12-May-20 17:16 36.086281 -115.153628 102 2129ft 0kts
12-May-20 17:17 36.086281 -115.153628 102 2129ft 0kts
12-May-20 17:18 36.086281 -115.153628 102 2129ft 0kts
12-May-20 17:19 36.086281 -115.153628 102 2129ft 0kts
12-May-20 17:20 36.086281 -115.153628 102 2129ft 0kts
12-May-20 17:21 36.086281 -115.153628 102 2129ft 0kts
12-May-20 17:22 36.086281 -115.153628 102 2129ft 0kts
12-May-20 17:23 36.086281 -115.153628 102 2129ft 0kts
12-May-20 17:24 36.086281 -115.153628 102 2129ft 0kts
12-May-20 17:25 36.086281 -115.153628 102 2129ft 0kts
12-May-20 17:26 36.086281 -115.153628 102 2129ft 0kts
12-May-20 17:27 36.086281 -115.153628 102 2129ft 0kts
12-May-20 17:28 36.086281 -115.153628 102 2129ft 0kts
12-May-20 17:29 36.086281 -115.153628 102 2129ft 0kts
12-May-20 17:30 36.086281 -115.153628 102 2129ft 0kts
12-May-20 17:31 36.086281 -115.153628 102 2129ft 0kts
12-May-20 17:32 36.086281 -115.153628 102 2129ft 0kts
12-May-20 17:33 36.086281 -115.153628 102 2129ft 0kts
12-May-20 17:34 36.086281 -115.153628 102 2129ft 0kts
12-May-20 17:35 36.086281 -115.153628 102 2129ft 0kts
12-May-20 17:36 36.086281 -115.153628 102 2129ft 0kts
12-May-20 17:37 36.086281 -115.153628 102 2129ft 0kts
12-May-20 17:38 36.086281 -115.153628 102 2129ft 0kts
12-May-20 17:39 36.086281 -115.153628 102 2129ft 0kts
12-May-20 17:40 36.086281 -115.153628 102 2129ft 0kts
12-May-20 17:41 36.086281 -115.153628 102 2129ft 0kts
12-May-20 17:42 36.086281 -115.153628 102 2129ft 0kts
12-May-20 17:43 36.086281 -115.153628 102 2129ft 0kts
12-May-20 17:44 36.086281 -115.153628 102 2129ft 0kts
12-May-20 17:45 36.086281 -115.153628 102 2129ft 0kts
12-May-20 17:46 36.086281 -115.153628 102 2129ft 0kts
12-May-20 17:47 36.086281 -115.153628 102 2129ft 0kts
12-May-20 17:48 36.086306 -115.153758 114 2129ft 2kts
12-May-20 17:49 36.086686 -115.154622 143 2129ft 2kts
12-May-20 17:50 36.086973 -115.154694 224 2129ft 0kts
12-May-20 17:51 36.086973 -115.154694 224 2129ft 0kts
12-May-20 17:52 36.086972 -115.154694 224 2129ft 0kts
12-May-20 17:53 36.086654 -115.155071 223 2129ft 5kts
12-May-20 17:54 36.086775 -115.156295 299 2129ft 6kts
12-May-20 17:55 36.087233 -115.157307 299 2129ft 2kts
12-May-20 17:56 36.088545 -115.157020 19 2129ft 6kts
12-May-20 17:57 36.090533 -115.155957 26 2129ft 8kts
12-May-20 17:58 36.092935 -115.154619 29 2129ft 10kts
12-May-20 17:59 36.095729 -115.153077 22 2129ft 12kts
12-May-20 18:00 36.098328 -115.153399 278 2129ft 11kts
12-May-20 18:01 36.080808 -115.163438 207 2575ft 162kts
12-May-20 18:02 36.037353 -115.188483 207 4739ft 199kts
12-May-20 18:03 35.995791 -115.244418 242 5674ft 254kts
12-May-20 18:04 35.947674 -115.306587 190 8220ft 274kts
12-May-20 18:05 35.870067 -115.313284 188 11379ft 299kts
12-May-20 18:06 35.778582 -115.306285 177 13712ft 347kts
12-May-20 18:07 35.680537 -115.303385 202 16483ft 356kts
12-May-20 18:08 35.609978 -115.386377 231 19018ft 361kts
12-May-20 18:09 35.540782 -115.479369 229 21316ft 374kts
12-May-20 18:10 35.469835 -115.574954 230 23337ft 385kts
12-May-20 18:11 35.396671 -115.673564 230 25147ft 395kts
12-May-20 18:12 35.321546 -115.774435 230 26842ft 403kts
12-May-20 18:13 35.246397 -115.875051 231 28927ft 398kts
12-May-20 18:14 35.170227 -115.972754 229 30776ft 395kts
12-May-20 18:15 35.093959 -116.068850 229 31899ft 396kts
12-May-20 18:16 35.017554 -116.164816 229 31926ft 395kts
12-May-20 18:17 34.940535 -116.261335 229 31923ft 399kts
12-May-20 18:18 34.862835 -116.358623 230 31926ft 399kts
12-May-20 18:19 34.787140 -116.455517 230 30143ft 395kts
12-May-20 18:20 34.713068 -116.549354 229 28510ft 363kts
12-May-20 18:21 34.638160 -116.628952 222 26503ft 353kts
12-May-20 18:22 34.562584 -116.702491 222 24996ft 346kts
12-May-20 18:23 34.487953 -116.777713 226 24556ft 340kts
12-May-20 18:24 34.420959 -116.856272 227 22594ft 330kts
12-May-20 18:25 34.355426 -116.932061 227 20719ft 321kts
12-May-20 18:26 34.291370 -117.005896 226 18959ft 313kts
12-May-20 18:27 34.221481 -117.067037 213 17271ft 310kts
12-May-20 18:28 34.144709 -117.117369 207 14857ft 325kts
12-May-20 18:29 34.063076 -117.160300 207 12701ft 314kts
12-May-20 18:30 33.989302 -117.204660 225 11988ft 283kts
12-May-20 18:31 33.939432 -117.276063 231 10546ft 278kts
12-May-20 18:32 33.890548 -117.344930 231 9693ft 257kts
12-May-20 18:33 33.846414 -117.407359 232 8748ft 239kts
12-May-20 18:34 33.809744 -117.471454 252 7820ft 224kts
12-May-20 18:35 33.796992 -117.543237 275 7572ft 232kts
12-May-20 18:37 33.801054 -117.619624 281 6793ft 226kts
12-May-20 18:38 33.824941 -117.680381 300 6091ft 227kts
12-May-20 18:39 33.849135 -117.746529 253 5250ft 216kts
12-May-20 18:40 33.807776 -117.785381 209 4330ft 183kts
12-May-20 18:41 33.763327 -117.813228 211 2582ft 170kts
12-May-20 18:42 33.724992 -117.837533 209 953ft 140kts
12-May-20 18:43 33.694207 -117.857035 208 388ft 129kts
12-May-20 18:44 33.670885 -117.871716 210 70ft 29kts
12-May-20 18:45 33.670208 -117.869782 40 70ft 14kts
12-May-20 18:46 33.673428 -117.866789 28 70ft 14kts
12-May-20 18:47 33.677201 -117.864411 27 70ft 15kts
12-May-20 18:48 33.678808 -117.862681 116 70ft 0kts
12-May-20 18:49 33.678770 -117.862591 116 70ft 0kts
12-May-20 18:50 33.678770 -117.862591 116 70ft 0kts
12-May-20 18:51 33.678770 -117.862591 116 70ft 0kts

Navigation Log

Ident Type
Flight plan parsing failed, navigation log unavailable